Time;durP1;ratioP1;P1;durP2;ratioP2;P2;SDS_P1;SDS_P2;PMS_P1;PMS_P2;Temp;Humidity;BMP_temperature;BMP_pressure;BME280_temperature;BME280_humidity;BME280_pressure;Samples;Min_cycle;Max_cycle;Signal;HPM_P1;HPM_P2
2022/12/17 13:06:42;;;;;;;16.33;6.75;;;10.90;68.40;;;;;;5029351;28;20087;-76
2022/12/17 13:09:19;;;;;;;11.35;6.03;;;10.20;70.80;;;;;;5031784;28;20036;-75
2022/12/17 13:11:59;;;;;;;12.30;7.00;;;9.70;71.60;;;;;;5041506;28;20037;-76
2022/12/17 13:14:43;;;;;;;11.43;6.78;;;9.80;73.20;;;;;;5046832;28;20047;-76
2022/12/17 13:17:17;;;;;;;8.63;3.60;;;9.50;71.40;;;;;;5030500;28;20040;-74
2022/12/17 13:19:46;;;;;;;7.32;4.00;;;8.90;69.80;;;;;;5037613;28;20087;-76
2022/12/17 13:22:14;;;;;;;8.82;4.40;;;8.50;74.90;;;;;;5042074;28;20037;-76
2022/12/17 13:24:45;;;;;;;6.63;3.08;;;8.00;75.50;;;;;;5032011;28;20120;-75
2022/12/17 13:27:35;;;;;;;7.07;2.53;;;8.20;76.30;;;;;;5030535;28;20033;-77
2022/12/17 13:30:15;;;;;;;6.28;2.88;;;8.30;75.90;;;;;;5046367;28;20037;-76
2022/12/17 13:33:05;;;;;;;5.82;3.00;;;8.20;73.70;;;;;;5024488;28;20052;-76
2022/12/17 13:36:08;;;;;;;10.93;5.03;;;8.40;71.20;;;;;;5026198;28;20087;-76
2022/12/17 13:38:46;;;;;;;8.40;3.72;;;8.10;70.10;;;;;;5025636;28;20032;-76
2022/12/17 13:41:17;;;;;;;10.20;4.43;;;7.80;75.20;;;;;;5026387;28;20095;-77
2022/12/17 13:43:49;;;;;;;7.95;3.72;;;7.60;73.90;;;;;;5025132;28;20022;-75
2022/12/17 13:46:24;;;;;;;8.52;3.25;;;7.80;71.10;;;;;;5025247;28;20052;-75
2022/12/17 13:49:01;;;;;;;6.88;2.85;;;7.90;72.00;;;;;;5043949;28;20187;-76
2022/12/17 13:51:29;;;;;;;6.57;3.03;;;7.80;74.50;;;;;;5045048;28;20102;-75
2022/12/17 13:53:58;;;;;;;7.80;3.95;;;7.70;75.00;;;;;;5045394;28;20493;-76
2022/12/17 13:56:27;;;;;;;6.65;2.50;;;7.60;75.60;;;;;;5044652;28;20044;-76
2022/12/17 13:58:55;;;;;;;6.40;2.78;;;7.60;74.50;;;;;;5044863;28;20376;-78
2022/12/17 14:01:21;;;;;;;5.85;2.83;;;7.50;78.80;;;;;;5044534;28;20029;-75
2022/12/17 14:03:52;;;;;;;6.53;2.65;;;7.40;74.40;;;;;;5043204;28;20063;-76
2022/12/17 14:06:19;;;;;;;8.13;2.83;;;7.20;75.30;;;;;;5039737;28;20033;-77
2022/12/17 14:08:47;;;;;;;8.10;3.13;;;7.30;77.50;;;;;;5044295;28;20029;-76
2022/12/17 14:13:57;;;;;;;7.72;3.28;;;7.10;74.40;;;;;;5045496;28;20600;-76
2022/12/17 14:16:22;;;;;;;10.98;4.07;;;7.00;75.90;;;;;;5045408;28;20058;-76
2022/12/17 14:18:51;;;;;;;6.63;2.97;;;6.90;78.90;;;;;;5035984;28;21108;-76
2022/12/17 14:21:18;;;;;;;5.30;2.50;;;6.80;75.70;;;;;;5043845;28;20029;-78
2022/12/17 14:23:45;;;;;;;8.27;3.53;;;6.70;75.60;;;;;;5045530;28;20056;-77
2022/12/17 14:26:12;;;;;;;8.30;3.22;;;6.60;76.50;;;;;;5043675;28;20033;-76
2022/12/17 14:28:45;;;;;;;10.05;3.17;;;6.50;75.70;;;;;;5041473;28;20017;-77
2022/12/17 14:31:14;;;;;;;6.53;2.70;;;6.50;77.40;;;;;;5024358;28;20029;-75
2022/12/17 14:33:41;;;;;;;7.72;3.20;;;6.40;76.80;;;;;;5029623;28;20068;-76
2022/12/17 14:36:21;;;;;;;6.60;2.97;;;6.30;76.70;;;;;;5048197;28;20028;-76
2022/12/17 14:39:21;;;;;;;6.32;2.75;;;6.20;77.00;;;;;;5048873;28;20116;-77
2022/12/17 14:44:32;;;;;;;10.27;6.60;;;5.90;78.90;;;;;;5049884;28;20028;-77
2022/12/17 14:47:36;;;;;;;7.80;4.28;;;5.80;80.20;;;;;;5049574;28;20025;-76
2022/12/17 14:50:11;;;;;;;8.95;5.05;;;5.60;82.20;;;;;;5009152;28;20485;-75
2022/12/17 14:52:48;;;;;;;10.13;5.68;;;5.40;81.70;;;;;;5025651;28;20045;-75
2022/12/17 14:55:32;;;;;;;9.85;5.88;;;5.30;83.90;;;;;;5030158;28;20570;-76
2022/12/17 14:58:13;;;;;;;15.50;8.88;;;5.30;84.70;;;;;;5047426;28;20091;-76
2022/12/17 15:00:45;;;;;;;19.05;11.77;;;5.10;87.40;;;;;;5049779;28;20103;-76
2022/12/17 15:03:26;;;;;;;13.52;7.35;;;5.00;89.30;;;;;;5048821;28;20069;-76
2022/12/17 15:05:56;;;;;;;19.58;10.00;;;4.90;90.50;;;;;;5037620;28;20030;-76
2022/12/17 15:08:22;;;;;;;12.05;6.60;;;4.80;91.90;;;;;;5028151;28;20029;-76
2022/12/17 15:10:48;;;;;;;9.20;4.72;;;4.70;93.10;;;;;;5031672;28;20033;-76
2022/12/17 15:13:13;;;;;;;9.10;4.00;;;4.60;93.30;;;;;;5044198;28;20654;-74
2022/12/17 15:15:39;;;;;;;9.43;4.28;;;4.50;94.30;;;;;;5048996;28;20435;-77
2022/12/17 15:18:05;;;;;;;8.15;3.80;;;4.40;95.20;;;;;;5047232;28;20037;-77
2022/12/17 15:20:30;;;;;;;6.85;3.63;;;4.40;95.10;;;;;;5028691;28;20086;-77
2022/12/17 15:22:56;;;;;;;7.50;4.10;;;4.30;96.00;;;;;;5043364;28;20041;-77
2022/12/17 15:25:22;;;;;;;11.00;4.63;;;4.20;97.10;;;;;;5047672;28;20051;-78
2022/12/17 15:27:47;;;;;;;10.38;5.32;;;4.10;97.80;;;;;;5049273;28;20488;-77
2022/12/17 15:30:16;;;;;;;6.65;4.38;;;3.90;98.20;;;;;;5034102;28;20448;-78
2022/12/17 15:32:42;;;;;;;7.40;4.57;;;3.80;98.60;;;;;;5027322;28;20049;-77
2022/12/17 15:35:08;;;;;;;7.45;3.90;;;3.70;99.90;;;;;;5029055;28;20025;-77
2022/12/17 15:37:34;;;;;;;7.43;3.78;;;3.60;99.50;;;;;;5027414;28;20025;-77
2022/12/17 15:40:00;;;;;;;6.93;3.70;;;3.50;99.30;;;;;;5026638;28;20056;-77
2022/12/17 15:45:09;;;;;;;6.53;3.22;;;3.30;99.60;;;;;;5028361;28;20028;-79
2022/12/17 15:47:35;;;;;;;7.20;3.72;;;3.30;99.50;;;;;;5046083;28;20025;-78
2022/12/17 15:50:02;;;;;;;10.60;5.22;;;3.20;99.80;;;;;;5048601;28;20053;-77
2022/12/17 15:52:28;;;;;;;11.60;5.78;;;3.10;99.90;;;;;;5046825;28;20083;-77
2022/12/17 15:54:53;;;;;;;7.88;4.43;;;3.00;99.90;;;;;;5048727;28;20029;-78
2022/12/17 15:57:19;;;;;;;9.40;4.93;;;2.90;99.90;;;;;;5046857;28;20170;-79
2022/12/17 15:59:45;;;;;;;8.27;3.80;;;2.80;99.90;;;;;;5048122;28;20036;-77
2022/12/17 16:02:11;;;;;;;7.15;3.97;;;2.70;99.90;;;;;;5047652;28;20808;-78
2022/12/17 16:04:36;;;;;;;6.72;3.35;;;2.60;99.90;;;;;;5047073;28;20029;-77
2022/12/17 16:07:03;;;;;;;8.07;3.60;;;2.50;99.90;;;;;;5047414;28;20040;-79
2022/12/17 16:09:29;;;;;;;10.18;4.65;;;2.40;99.90;;;;;;5046194;28;20033;-77
2022/12/17 16:11:55;;;;;;;8.15;4.15;;;2.30;99.90;;;;;;5047196;28;20079;-78
2022/12/17 16:14:22;;;;;;;10.13;4.45;;;2.20;99.90;;;;;;5047013;28;20096;-77
2022/12/17 16:16:48;;;;;;;11.15;5.20;;;2.20;99.90;;;;;;5046088;28;20017;-76
2022/12/17 16:19:13;;;;;;;12.50;6.13;;;2.10;99.90;;;;;;5042749;28;20042;-78
2022/12/17 16:21:39;;;;;;;9.52;5.57;;;2.00;99.90;;;;;;5031999;28;20140;-77
2022/12/17 16:24:05;;;;;;;8.70;4.30;;;1.90;99.90;;;;;;5048131;28;20367;-77
2022/12/17 16:26:30;;;;;;;10.45;4.70;;;1.90;99.90;;;;;;5046053;28;20075;-79
2022/12/17 16:28:57;;;;;;;13.88;5.93;;;1.90;99.90;;;;;;5046188;28;20029;-79
2022/12/17 16:31:22;;;;;;;14.82;5.38;;;1.90;99.90;;;;;;5047825;28;20064;-80
2022/12/17 16:33:48;;;;;;;28.88;11.55;;;1.90;99.90;;;;;;5047937;28;20577;-78
2022/12/17 16:36:16;;;;;;;18.15;7.60;;;1.90;99.90;;;;;;5047533;28;20053;-77
2022/12/17 16:38:48;;;;;;;20.65;9.18;;;1.80;99.90;;;;;;5027770;28;20033;-78
2022/12/17 16:41:15;;;;;;;19.02;8.07;;;1.80;99.90;;;;;;5026125;28;20033;-78
2022/12/17 16:43:40;;;;;;;16.50;6.63;;;1.80;99.90;;;;;;5027521;28;20913;-78
2022/12/17 16:46:25;;;;;;;9.43;4.22;;;1.80;99.90;;;;;;5025954;28;20025;-80
2022/12/17 16:48:51;;;;;;;12.65;5.45;;;1.80;99.90;;;;;;5025851;28;20732;-77
2022/12/17 16:51:18;;;;;;;10.55;4.90;;;1.80;99.90;;;;;;5026028;28;20632;-75
2022/12/17 16:53:44;;;;;;;9.85;6.03;;;1.80;99.90;;;;;;5033735;28;20033;-75
2022/12/17 16:56:18;;;;;;;9.35;4.75;;;1.70;99.90;;;;;;5027682;28;20033;-77
2022/12/17 16:58:45;;;;;;;24.52;14.82;;;1.70;99.90;;;;;;5027149;28;20030;-78
2022/12/17 17:01:11;;;;;;;22.83;13.30;;;1.60;99.90;;;;;;5026791;28;20798;-74
2022/12/17 17:03:40;;;;;;;20.98;13.65;;;1.60;99.90;;;;;;5026297;28;20091;-78
2022/12/17 17:06:07;;;;;;;13.07;7.30;;;1.60;99.90;;;;;;5026939;28;20032;-78
2022/12/17 17:08:35;;;;;;;10.45;4.97;;;1.60;99.90;;;;;;5039745;28;20087;-76
2022/12/17 17:11:06;;;;;;;11.85;6.32;;;1.50;99.90;;;;;;5027847;28;20034;-75
2022/12/17 17:13:32;;;;;;;16.38;8.15;;;1.50;99.90;;;;;;5025434;28;20041;-77
2022/12/17 17:15:58;;;;;;;21.90;11.75;;;1.50;99.90;;;;;;5029650;28;20041;-78
2022/12/17 17:18:23;;;;;;;28.88;13.45;;;1.40;99.90;;;;;;5042457;28;20103;-80
2022/12/17 17:20:49;;;;;;;30.35;13.35;;;1.30;99.90;;;;;;5042218;28;20037;-77
2022/12/17 17:23:15;;;;;;;41.00;19.02;;;1.20;99.90;;;;;;5027679;28;20064;-76
2022/12/17 17:25:41;;;;;;;16.75;9.20;;;1.10;99.90;;;;;;5026961;28;20397;-79
2022/12/17 17:28:07;;;;;;;32.65;18.45;;;1.10;99.90;;;;;;5031021;28;20502;-78
2022/12/17 17:30:32;;;;;;;16.27;8.95;;;1.00;99.90;;;;;;5046737;28;20029;-78
2022/12/17 17:32:58;;;;;;;21.90;12.13;;;1.00;99.90;;;;;;5046237;28;20069;-79
2022/12/17 17:35:23;;;;;;;19.55;9.10;;;1.00;99.90;;;;;;5047444;28;20025;-80
2022/12/17 17:37:49;;;;;;;20.65;10.65;;;1.10;99.90;;;;;;5045337;28;20065;-78
2022/12/17 17:40:14;;;;;;;13.95;6.53;;;1.00;99.90;;;;;;5045597;28;20554;-78
2022/12/17 17:42:40;;;;;;;11.52;6.40;;;1.00;99.90;;;;;;5046651;28;20029;-78
2022/12/17 17:45:07;;;;;;;14.70;6.43;;;1.00;99.90;;;;;;5045202;28;20547;-78
2022/12/17 17:47:33;;;;;;;12.65;7.55;;;1.10;99.90;;;;;;5045529;28;20107;-80
2022/12/17 17:49:59;;;;;;;11.88;7.18;;;1.10;99.90;;;;;;5046799;28;20069;-80
2022/12/17 17:52:24;;;;;;;14.73;6.88;;;1.10;99.90;;;;;;5045724;28;20029;-80
2022/12/17 17:54:50;;;;;;;27.83;13.98;;;1.10;99.90;;;;;;5028978;28;20815;-80
2022/12/17 17:57:16;;;;;;;24.70;12.18;;;1.10;99.90;;;;;;5030905;28;20033;-79
2022/12/17 17:59:41;;;;;;;32.42;14.32;;;1.10;99.90;;;;;;5031179;28;20055;-78
2022/12/17 18:02:09;;;;;;;31.73;20.40;;;1.10;99.90;;;;;;5041573;28;20525;-77
2022/12/17 18:04:35;;;;;;;21.35;13.80;;;1.10;99.90;;;;;;5045803;28;20063;-82
2022/12/17 18:07:00;;;;;;;16.80;10.10;;;1.10;99.90;;;;;;5038983;28;20059;-82
2022/12/17 18:09:26;;;;;;;18.70;9.68;;;1.10;99.90;;;;;;5027357;28;20076;-82
2022/12/17 18:11:51;;;;;;;17.92;9.90;;;1.00;99.90;;;;;;5030913;28;20519;-82
2022/12/17 18:14:17;;;;;;;20.15;10.07;;;0.90;99.90;;;;;;5031644;28;20033;-83
2022/12/17 18:16:45;;;;;;;18.38;8.93;;;0.80;99.90;;;;;;5033267;28;20041;-82
2022/12/17 18:19:20;;;;;;;19.15;8.93;;;0.70;99.90;;;;;;5044915;28;20231;-83
2022/12/17 18:21:46;;;;;;;16.88;8.65;;;0.60;99.90;;;;;;5035657;28;20029;-76
2022/12/17 18:24:18;;;;;;;20.25;9.60;;;0.60;99.90;;;;;;5044036;28;20024;-82
2022/12/17 18:26:46;;;;;;;19.83;9.52;;;0.50;99.90;;;;;;5042558;28;20108;-83
2022/12/17 18:29:15;;;;;;;22.83;11.32;;;0.60;99.90;;;;;;5037254;28;20708;-82
2022/12/17 18:31:41;;;;;;;22.63;10.63;;;0.60;99.90;;;;;;5038177;28;20037;-81
2022/12/17 18:34:08;;;;;;;62.67;31.88;;;0.60;99.90;;;;;;5046749;28;20040;-81
2022/12/17 18:36:36;;;;;;;33.15;14.40;;;0.70;99.90;;;;;;5036368;28;20037;-82
2022/12/17 18:39:12;;;;;;;32.15;14.50;;;0.70;99.90;;;;;;5036678;28;20037;-82
2022/12/17 18:44:23;;;;;;;28.77;16.83;;;0.80;99.90;;;;;;5035160;28;20122;-78
2022/12/17 18:46:48;;;;;;;29.77;13.98;;;0.90;99.90;;;;;;5037895;28;20025;-80
2022/12/17 18:49:16;;;;;;;29.42;12.73;;;1.00;99.90;;;;;;5050414;28;20022;-79
2022/12/17 18:51:43;;;;;;;31.67;14.73;;;1.00;99.90;;;;;;5038064;28;20033;-80
2022/12/17 18:54:13;;;;;;;28.77;14.98;;;1.00;99.90;;;;;;5033107;28;20086;-80
2022/12/17 18:56:39;;;;;;;;;;;1.00;99.90;;;;;;5041631;28;20031;-79
2022/12/17 18:59:04;;;;;;;35.45;16.25;;;0.90;99.90;;;;;;5032267;28;19917;-80
2022/12/17 19:01:33;;;;;;;47.58;18.63;;;0.90;99.90;;;;;;5042274;28;20036;-79
2022/12/17 19:04:08;;;;;;;38.75;18.10;;;0.80;99.90;;;;;;5044842;28;20414;-80
2022/12/17 19:06:35;;;;;;;41.50;17.63;;;0.70;99.90;;;;;;5034921;28;20122;-79
2022/12/17 19:09:02;;;;;;;36.65;16.02;;;0.60;99.90;;;;;;5044204;28;20043;-78
2022/12/17 19:11:31;;;;;;;34.50;15.77;;;0.60;99.90;;;;;;5041356;28;20033;-80
2022/12/17 19:13:57;;;;;;;42.10;19.17;;;0.60;99.90;;;;;;5039106;28;20041;-80
2022/12/17 19:16:25;;;;;;;43.03;20.42;;;0.60;99.90;;;;;;5029012;28;20122;-80
2022/12/17 19:19:02;;;;;;;40.67;19.15;;;0.70;99.90;;;;;;5030364;28;20595;-80
2022/12/17 19:21:29;;;;;;;42.05;18.55;;;0.70;99.90;;;;;;5038323;28;20105;-80
2022/12/17 19:23:57;;;;;;;41.67;19.70;;;0.70;99.90;;;;;;5039054;28;20092;-80
2022/12/17 19:26:24;;;;;;;47.45;20.25;;;0.60;99.90;;;;;;5039541;28;20067;-80
2022/12/17 19:28:52;;;;;;;46.80;19.48;;;0.60;99.90;;;;;;5043426;28;20083;-79
2022/12/17 19:31:19;;;;;;;49.35;22.02;;;0.50;99.90;;;;;;5046882;28;20029;-79
2022/12/17 19:33:45;;;;;;;46.92;21.73;;;0.40;99.90;;;;;;5039750;28;20086;-82
2022/12/17 19:36:13;;;;;;;49.35;21.23;;;0.40;99.90;;;;;;5034083;28;20079;-80
2022/12/17 19:38:39;;;;;;;53.70;24.35;;;0.30;99.90;;;;;;5051003;28;20603;-80
2022/12/17 19:41:13;;;;;;;55.70;23.65;;;0.40;99.90;;;;;;5047456;28;20044;-80
2022/12/17 19:43:40;;;;;;;49.40;22.83;;;0.40;99.90;;;;;;5028824;28;20076;-81
2022/12/17 19:46:08;;;;;;;60.38;27.58;;;0.30;99.90;;;;;;5039878;28;20501;-80
2022/12/17 19:48:36;;;;;;;54.55;24.73;;;0.40;99.90;;;;;;5033685;28;20629;-80
2022/12/17 19:51:04;;;;;;;62.08;27.40;;;0.40;99.90;;;;;;5034157;28;20091;-80
2022/12/17 19:53:30;;;;;;;63.08;27.02;;;0.40;99.90;;;;;;5039978;28;20076;-81
2022/12/17 19:56:07;;;;;;;70.40;30.23;;;0.40;99.90;;;;;;5046335;28;20036;-79
2022/12/17 19:58:32;;;;;;;70.25;30.98;;;0.40;99.90;;;;;;5031793;28;20483;-79
2022/12/17 20:01:08;;;;;;;77.43;34.55;;;0.40;99.90;;;;;;5040568;28;20033;-79
2022/12/17 20:03:34;;;;;;;60.78;28.27;;;0.40;99.90;;;;;;5043897;28;20033;-80
2022/12/17 20:06:00;;;;;;;90.05;36.72;;;0.40;99.90;;;;;;5044766;28;20025;-79
2022/12/17 20:08:26;;;;;;;86.97;39.95;;;0.50;99.90;;;;;;5042560;28;20569;-79
2022/12/17 20:10:51;;;;;;;113.47;50.50;;;0.50;99.90;;;;;;5033397;28;20045;-80
2022/12/17 20:13:17;;;;;;;106.18;49.50;;;0.50;99.90;;;;;;5028024;28;20174;-79
2022/12/17 20:15:42;;;;;;;113.15;55.55;;;0.50;99.90;;;;;;5031942;28;20032;-79
2022/12/17 20:18:08;;;;;;;82.03;41.97;;;0.50;99.90;;;;;;5044382;28;20033;-79
2022/12/17 20:20:34;;;;;;;91.10;41.33;;;0.50;99.90;;;;;;5042275;28;20066;-79
2022/12/17 20:22:59;;;;;;;77.95;36.20;;;0.40;99.90;;;;;;5039570;28;21088;-77
2022/12/17 20:25:25;;;;;;;68.28;32.45;;;0.40;99.90;;;;;;5042899;28;20021;-80
2022/12/17 20:27:50;;;;;;;66.65;31.98;;;0.40;99.90;;;;;;5039783;28;20501;-77
2022/12/17 20:30:16;;;;;;;78.15;36.28;;;0.40;99.90;;;;;;5043619;28;20029;-79
2022/12/17 20:32:42;;;;;;;69.65;30.45;;;0.30;99.90;;;;;;5032701;28;20045;-78
2022/12/17 20:35:08;;;;;;;62.05;25.88;;;0.30;99.90;;;;;;5050961;28;20033;-78
2022/12/17 20:37:33;;;;;;;60.20;25.95;;;0.30;99.90;;;;;;5036383;28;20028;-77
2022/12/17 20:39:59;;;;;;;80.00;33.40;;;0.30;99.90;;;;;;5038580;28;20060;-78
2022/12/17 20:42:25;;;;;;;91.63;42.03;;;0.30;99.90;;;;;;5049572;28;20032;-78
2022/12/17 20:44:50;;;;;;;97.47;39.47;;;0.20;99.90;;;;;;5029762;28;20036;-79
2022/12/17 20:47:16;;;;;;;88.85;37.17;;;0.20;99.90;;;;;;5030774;28;20032;-79
2022/12/17 20:49:41;;;;;;;79.40;34.78;;;0.10;99.90;;;;;;5033337;28;20030;-78
2022/12/17 20:52:07;;;;;;;89.82;32.85;;;0.10;99.90;;;;;;5038602;28;20033;-80
2022/12/17 20:54:33;;;;;;;92.22;36.70;;;0.10;99.90;;;;;;5046185;28;20035;-79
2022/12/17 20:56:58;;;;;;;96.22;36.35;;;0.10;99.90;;;;;;5037477;28;20040;-79
2022/12/17 20:59:24;;;;;;;94.47;36.72;;;0.00;99.90;;;;;;5047314;28;20041;-79
2022/12/17 21:01:50;;;;;;;81.85;33.88;;;0.00;99.90;;;;;;5043265;28;20040;-79
2022/12/17 21:04:15;;;;;;;75.90;31.83;;;-0.10;99.90;;;;;;5053789;28;20483;-79
2022/12/17 21:06:44;;;;;;;85.32;33.35;;;-0.10;99.90;;;;;;5030242;28;20025;-78
2022/12/17 21:09:11;;;;;;;77.20;31.63;;;0.00;99.90;;;;;;5042863;28;20434;-79
2022/12/17 21:11:38;;;;;;;77.78;31.98;;;-0.10;99.90;;;;;;5036090;28;20124;-77
2022/12/17 21:14:07;;;;;;;87.53;32.90;;;-0.10;99.90;;;;;;5034141;28;20037;-79
2022/12/17 21:16:33;;;;;;;82.47;33.20;;;-0.20;99.90;;;;;;5040121;28;20025;-78
2022/12/17 21:19:00;;;;;;;84.03;33.25;;;-0.30;99.90;;;;;;5047426;28;20033;-78
2022/12/17 21:21:29;;;;;;;73.43;30.35;;;-0.30;99.90;;;;;;5033331;28;20040;-77
2022/12/17 21:23:55;;;;;;;66.43;26.33;;;-0.40;99.90;;;;;;5034784;28;20060;-78
2022/12/17 21:26:28;;;;;;;61.45;25.75;;;-0.30;99.90;;;;;;5030443;28;20031;-78
2022/12/17 21:28:58;;;;;;;77.75;29.52;;;-0.30;99.90;;;;;;5040014;28;20057;-75
2022/12/17 21:31:31;;;;;;;66.22;26.98;;;-0.20;99.90;;;;;;5042731;28;20033;-79
2022/12/17 21:33:59;;;;;;;58.15;26.10;;;-0.30;99.90;;;;;;5051643;28;20044;-78
2022/12/17 21:36:26;;;;;;;65.15;28.17;;;-0.20;99.90;;;;;;5050642;28;20033;-79
2022/12/17 21:38:52;;;;;;;62.17;26.38;;;-0.10;99.90;;;;;;5045593;28;20025;-78
2022/12/17 21:41:23;;;;;;;67.00;25.65;;;-0.10;99.90;;;;;;5028363;28;20029;-79
2022/12/17 21:43:57;;;;;;;59.58;24.63;;;0.00;99.90;;;;;;5048729;28;20033;-76
2022/12/17 21:46:25;;;;;;;71.10;26.77;;;0.00;99.90;;;;;;5033354;28;20116;-76
2022/12/17 21:48:52;;;;;;;63.53;25.95;;;0.00;99.90;;;;;;5040480;28;20032;-76
2022/12/17 21:51:19;;;;;;;61.22;25.40;;;0.10;99.90;;;;;;5045854;28;20120;-76
2022/12/17 21:53:44;;;;;;;71.22;28.83;;;0.20;99.90;;;;;;5046275;28;20048;-79
2022/12/17 21:56:15;;;;;;;69.88;28.20;;;0.20;99.90;;;;;;5051774;28;20028;-78
2022/12/17 21:58:42;;;;;;;58.95;24.33;;;0.30;99.90;;;;;;5059541;28;20077;-78
2022/12/17 22:01:17;;;;;;;56.90;24.33;;;0.40;99.90;;;;;;5050965;28;20277;-78
2022/12/17 22:03:43;;;;;;;52.28;23.13;;;0.30;99.90;;;;;;5045755;28;20749;-77
2022/12/17 22:06:13;;;;;;;60.13;23.70;;;0.30;99.90;;;;;;5071202;28;20096;-78
2022/12/17 22:08:39;;;;;;;58.90;23.80;;;0.30;99.90;;;;;;5058215;28;20028;-79
2022/12/17 22:11:13;;;;;;;51.95;21.23;;;0.10;99.90;;;;;;5052411;28;20483;-77
2022/12/17 22:16:25;;;;;;;44.78;19.65;;;0.30;99.90;;;;;;5045324;28;20036;-78
2022/12/17 22:18:51;;;;;;;46.88;20.08;;;0.30;99.90;;;;;;5036086;28;20060;-77
2022/12/17 22:21:18;;;;;;;51.17;21.75;;;0.40;99.90;;;;;;5044120;28;20044;-78
2022/12/17 22:23:47;;;;;;;45.67;20.42;;;0.50;99.90;;;;;;5033349;28;20060;-78
2022/12/17 22:26:15;;;;;;;52.08;21.48;;;0.50;99.90;;;;;;5045880;28;20025;-79
2022/12/17 22:28:42;;;;;;;50.28;20.17;;;0.50;99.90;;;;;;5045414;28;20036;-78
2022/12/17 22:33:56;;;;;;;49.28;19.90;;;0.50;99.90;;;;;;5035245;28;20640;-78
2022/12/17 22:36:22;;;;;;;45.63;20.75;;;0.50;99.90;;;;;;5044332;28;20543;-79
2022/12/17 22:38:48;;;;;;;47.05;21.05;;;0.60;99.90;;;;;;5048184;28;20035;-78
2022/12/17 22:43:28;;;;;;;44.63;19.50;;;0.60;99.90;;;;;;5042809;28;20698;-78
2022/12/17 22:44:00;;;;;;;41.20;18.88;;;0.50;99.90;;;;;;5043377;28;20033;-76
2022/12/17 22:46:26;;;;;;;41.80;20.02;;;0.50;99.90;;;;;;5038839;28;20040;-76
2022/12/17 22:48:52;;;;;;;43.65;18.88;;;0.60;99.90;;;;;;5051501;28;20029;-77
2022/12/17 22:51:17;;;;;;;47.60;20.00;;;0.50;99.90;;;;;;5048487;28;20041;-76
2022/12/17 22:53:43;;;;;;;39.25;18.85;;;0.50;99.90;;;;;;5043775;28;20747;-78
2022/12/17 22:56:09;;;;;;;41.15;19.25;;;0.50;99.90;;;;;;5040156;28;20036;-76
2022/12/17 22:58:38;;;;;;;43.25;18.88;;;0.60;99.90;;;;;;5039594;28;20041;-76
2022/12/17 23:01:04;;;;;;;40.53;18.50;;;0.50;99.90;;;;;;5040894;28;20044;-77
2022/12/17 23:03:30;;;;;;;40.35;17.23;;;0.60;99.90;;;;;;5052508;28;20392;-76
2022/12/17 23:06:16;;;;;;;45.70;19.52;;;0.70;99.90;;;;;;5042163;28;20040;-78
2022/12/17 23:08:43;;;;;;;44.67;17.90;;;0.80;99.90;;;;;;5052765;28;20031;-77
2022/12/17 23:11:15;;;;;;;41.45;17.88;;;0.80;99.90;;;;;;5033237;28;20037;-78
2022/12/17 23:13:42;;;;;;;41.80;18.40;;;0.90;99.90;;;;;;5048553;28;20021;-77
2022/12/17 23:16:11;;;;;;;43.95;19.15;;;0.90;99.90;;;;;;5043040;28;20040;-77
2022/12/17 23:18:36;;;;;;;38.65;18.05;;;0.80;99.90;;;;;;5050986;28;20031;-77
2022/12/17 23:21:09;;;;;;;40.08;19.30;;;0.70;99.90;;;;;;5038872;28;20136;-76
2022/12/17 23:23:35;;;;;;;40.00;19.15;;;0.60;99.90;;;;;;5063608;28;20029;-76
2022/12/17 23:26:13;;;;;;;43.25;19.20;;;0.60;99.90;;;;;;5039334;28;20035;-76
2022/12/17 23:28:39;;;;;;;44.67;20.25;;;0.50;99.90;;;;;;5039942;28;20036;-76
2022/12/17 23:31:09;;;;;;;42.05;18.42;;;0.40;99.90;;;;;;5051523;28;20032;-78
2022/12/17 23:33:36;;;;;;;46.63;20.88;;;0.50;99.90;;;;;;5032322;28;20120;-76
2022/12/17 23:36:06;;;;;;;45.97;19.60;;;0.40;99.90;;;;;;5031215;28;20060;-77
2022/12/17 23:38:33;;;;;;;45.25;19.23;;;0.40;99.90;;;;;;5034385;28;20055;-78
2022/12/17 23:41:04;;;;;;;46.70;20.30;;;0.40;99.90;;;;;;5027919;28;20037;-76
2022/12/17 23:43:30;;;;;;;42.50;19.15;;;0.40;99.90;;;;;;5043852;28;20033;-77
2022/12/17 23:45:55;;;;;;;45.35;19.27;;;0.40;99.90;;;;;;5043417;28;20036;-77
2022/12/17 23:48:21;;;;;;;44.10;19.77;;;0.40;99.90;;;;;;5045462;28;20055;-76
2022/12/17 23:50:47;;;;;;;43.75;19.25;;;0.30;99.90;;;;;;5033799;28;20052;-76
2022/12/17 23:53:12;;;;;;;49.70;19.50;;;0.20;99.90;;;;;;5040448;28;20034;-77
2022/12/17 23:55:38;;;;;;;43.75;18.83;;;0.00;99.90;;;;;;5052711;28;20060;-77
2022/12/17 23:58:03;;;;;;;46.13;19.55;;;-0.10;99.90;;;;;;5034923;28;20044;-77
